Time;durP1;ratioP1;P1;durP2;ratioP2;P2;SDS_P1;SDS_P2;PMS_P1;PMS_P2;Temp;Humidity;BMP_temperature;BMP_pressure;BME280_temperature;BME280_humidity;BME280_pressure;Samples;Min_cycle;Max_cycle;Signal;HPM_P1;HPM_P2
2022/05/16 00:01:53;;;;;;;4.40;2.50;;;;;;;22.76;48.14;101100.39;104688;1305;74821;-84
2022/05/16 00:04:21;;;;;;;3.40;2.30;;;;;;;22.75;48.18;101101.66;104582;1306;61190;-85
2022/05/16 00:06:47;;;;;;;4.10;2.60;;;;;;;22.75;48.12;101102.95;104664;1306;61307;-84
2022/05/16 00:09:13;;;;;;;4.00;2.60;;;;;;;22.75;48.13;101105.62;104647;1306;61180;-83
2022/05/16 00:11:41;;;;;;;5.00;2.60;;;;;;;22.75;48.19;101106.89;104703;1306;61269;-84
2022/05/16 00:14:10;;;;;;;4.10;2.80;;;;;;;22.75;48.14;101108.12;104570;1306;61307;-84
2022/05/16 00:16:36;;;;;;;3.50;2.40;;;;;;;22.75;48.15;101107.80;104637;1306;62794;-84
2022/05/16 00:19:03;;;;;;;4.20;2.90;;;;;;;22.75;48.13;101108.52;104647;1306;61208;-84
2022/05/16 00:21:29;;;;;;;5.30;2.50;;;;;;;22.75;48.19;101107.06;104635;1306;61348;-86
2022/05/16 00:23:57;;;;;;;3.60;2.60;;;;;;;22.75;48.21;101105.85;104636;1307;61394;-86
2022/05/16 00:26:23;;;;;;;3.50;2.60;;;;;;;22.75;48.22;101101.36;104578;1306;61272;-85
2022/05/16 00:28:52;;;;;;;4.20;2.60;;;;;;;22.75;48.27;101097.96;104622;1306;73013;-87
2022/05/16 00:31:18;;;;;;;3.80;2.50;;;;;;;22.74;48.21;101101.92;104623;1306;61305;-83
2022/05/16 00:33:44;;;;;;;3.30;2.50;;;;;;;22.75;48.24;101100.48;104647;1306;61170;-86
2022/05/16 00:36:09;;;;;;;4.30;2.60;;;;;;;22.74;48.21;101096.74;104717;1306;61349;-83
2022/05/16 00:38:35;;;;;;;4.50;2.40;;;;;;;22.75;48.21;101099.41;104528;1306;61371;-82
2022/05/16 00:41:02;;;;;;;3.40;2.40;;;;;;;22.74;48.19;101096.02;104583;1306;61285;-83
2022/05/16 00:43:57;;;;;;;4.30;2.70;;;;;;;22.74;48.24;101095.83;104486;1307;59574;-85
2022/05/16 00:46:27;;;;;;;4.50;2.70;;;;;;;22.74;48.19;101098.90;104718;1306;62169;-84
2022/05/16 00:48:54;;;;;;;4.10;2.80;;;;;;;22.74;48.37;101098.00;104647;1307;73034;-84
2022/05/16 00:51:34;;;;;;;4.60;2.50;;;;;;;22.74;48.27;101098.35;104639;1305;75360;-84
2022/05/16 00:54:10;;;;;;;4.40;2.70;;;;;;;22.74;48.23;101097.66;104646;1306;61167;-84
2022/05/16 00:56:37;;;;;;;3.90;2.60;;;;;;;22.74;48.28;101096.19;104563;1306;61613;-83
2022/05/16 00:59:03;;;;;;;4.10;2.60;;;;;;;22.74;48.26;101098.75;104903;1306;73085;-84
2022/05/16 01:07:01;;;;;;;4.70;2.80;;;;;;;22.73;48.41;101101.48;104905;1306;61503;-85
2022/05/16 01:09:27;;;;;;;4.50;2.90;;;;;;;22.73;48.33;101100.23;104542;1306;74475;-83
2022/05/16 01:11:53;;;;;;;4.30;2.70;;;;;;;22.73;48.43;101096.12;104627;1306;61287;-83
2022/05/16 01:14:45;;;;;;;4.10;2.50;;;;;;;22.73;48.37;101097.73;104745;1306;61266;-83
2022/05/16 01:17:12;;;;;;;4.40;2.80;;;;;;;22.73;48.34;101100.60;104749;1306;61317;-87
2022/05/16 01:19:41;;;;;;;4.90;2.70;;;;;;;22.73;48.25;101102.95;104487;1306;73743;-85
2022/05/16 01:22:27;;;;;;;6.10;3.30;;;;;;;22.73;48.39;101105.63;104709;1306;74643;-89
2022/05/16 01:25:08;;;;;;;3.60;2.60;;;;;;;22.73;48.35;101105.30;104899;1306;61220;-85
2022/05/16 01:27:49;;;;;;;5.50;2.90;;;;;;;22.73;48.33;101103.12;104665;1306;61264;-87
2022/05/16 01:30:20;;;;;;;4.30;2.60;;;;;;;22.72;48.41;101101.01;104574;1306;72820;-85
2022/05/16 01:32:49;;;;;;;4.10;2.80;;;;;;;22.72;48.37;101102.44;104579;1306;75845;-84
2022/05/16 01:35:24;;;;;;;3.20;2.40;;;;;;;22.72;48.42;101096.89;104885;1306;61263;-86
2022/05/16 01:40:36;;;;;;;4.00;2.70;;;;;;;22.72;48.38;101092.07;104759;1306;72888;-84
2022/05/16 01:43:03;;;;;;;4.00;2.60;;;;;;;22.72;48.39;101095.48;104563;1306;75817;-84
2022/05/16 01:45:29;;;;;;;4.50;2.60;;;;;;;22.72;48.48;101091.73;104545;1306;62112;-85
2022/05/16 01:47:55;;;;;;;3.50;2.40;;;;;;;22.72;48.41;101095.14;104635;1307;61609;-85
2022/05/16 01:50:24;;;;;;;4.70;2.70;;;;;;;22.72;48.47;101094.05;104731;1306;61380;-84
2022/05/16 01:52:52;;;;;;;5.10;2.70;;;;;;;22.72;48.43;101094.77;104656;1306;74759;-82
2022/05/16 01:55:23;;;;;;;6.40;2.80;;;;;;;22.72;48.43;101090.80;104682;1306;61284;-85
2022/05/16 01:57:49;;;;;;;5.00;2.90;;;;;;;22.71;48.35;101093.18;104488;1306;61233;-83
2022/05/16 02:00:23;;;;;;;4.40;2.70;;;;;;;22.71;48.40;101093.55;104576;1306;72690;-84
2022/05/16 02:02:51;;;;;;;5.40;2.90;;;;;;;22.71;48.46;101097.86;104690;1306;74956;-84
2022/05/16 02:05:19;;;;;;;4.10;2.60;;;;;;;22.71;48.42;101096.27;104897;1306;61236;-83
2022/05/16 02:07:50;;;;;;;5.00;2.80;;;;;;;22.72;48.33;101097.64;104671;1306;61218;-85
2022/05/16 02:10:17;;;;;;;3.60;2.50;;;;;;;22.72;48.46;101097.66;104714;1306;72253;-85
2022/05/16 02:12:42;;;;;;;3.70;2.40;;;;;;;22.72;48.40;101096.21;104643;1304;76282;-83
2022/05/16 02:15:09;;;;;;;4.80;2.80;;;;;;;22.72;48.48;101098.20;104652;1305;61357;-83
2022/05/16 02:17:38;;;;;;;4.30;2.70;;;;;;;22.71;48.51;101099.13;104653;1306;61864;-84
2022/05/16 02:20:04;;;;;;;3.90;2.50;;;;;;;22.71;48.43;101096.41;104561;1306;72864;-85
2022/05/16 02:25:21;;;;;;;3.80;2.70;;;;;;;22.71;48.43;101098.41;104666;1305;61711;-83
2022/05/16 02:27:50;;;;;;;3.50;2.50;;;;;;;22.71;48.38;101099.68;104522;1305;61237;-83
2022/05/16 02:30:16;;;;;;;3.80;2.80;;;;;;;22.71;48.44;101099.52;104544;1307;72116;-83
2022/05/16 02:32:44;;;;;;;4.20;2.80;;;;;;;22.71;48.47;101100.20;104534;1309;61363;-88
2022/05/16 02:35:16;;;;;;;4.30;2.60;;;;;;;22.70;48.45;101099.21;104570;1307;61388;-84
2022/05/16 02:37:42;;;;;;;5.30;2.80;;;;;;;22.70;48.41;101107.23;104676;1306;61097;-85
2022/05/16 02:40:09;;;;;;;3.50;2.70;;;;;;;22.71;48.49;101106.67;104638;1306;61270;-87
2022/05/16 02:42:35;;;;;;;4.10;2.50;;;;;;;22.71;48.49;101105.63;104629;1307;61271;-84
2022/05/16 02:45:01;;;;;;;3.60;2.70;;;;;;;22.70;48.49;101103.33;104645;1307;61406;-85
2022/05/16 02:47:31;;;;;;;4.10;2.70;;;;;;;22.71;48.54;101106.13;104556;1306;61318;-84
2022/05/16 02:50:00;;;;;;;4.70;2.70;;;;;;;22.71;48.49;101109.04;104755;1306;74665;-84
2022/05/16 02:52:32;;;;;;;4.10;2.70;;;;;;;22.71;48.59;101109.56;104674;1306;75589;-84
2022/05/16 02:55:00;;;;;;;3.50;2.60;;;;;;;22.70;48.42;101113.35;104715;1306;61295;-84
2022/05/16 02:57:27;;;;;;;4.60;2.80;;;;;;;22.70;48.46;101112.31;104876;1305;61409;-82
2022/05/16 02:59:57;;;;;;;4.20;2.70;;;;;;;22.71;48.44;101114.44;104758;1306;72661;-83
2022/05/16 03:02:25;;;;;;;3.50;2.60;;;;;;;22.70;48.53;101117.46;104669;1306;75203;-85
2022/05/16 03:04:54;;;;;;;4.40;2.60;;;;;;;22.70;48.49;101117.12;104913;1306;61319;-84
2022/05/16 03:07:20;;;;;;;3.50;2.70;;;;;;;22.70;48.46;101119.47;104646;1306;61215;-85
2022/05/16 03:09:48;;;;;;;3.70;2.70;;;;;;;22.71;48.51;101118.52;104644;1306;73761;-85
2022/05/16 03:12:17;;;;;;;4.30;2.90;;;;;;;22.71;48.52;101118.00;104542;1307;61270;-83
2022/05/16 03:14:43;;;;;;;3.80;2.70;;;;;;;22.71;48.56;101116.77;104652;1306;61361;-83
2022/05/16 03:17:18;;;;;;;4.20;2.70;;;;;;;22.70;48.52;101120.15;104695;1306;61180;-88
2022/05/16 03:19:49;;;;;;;5.10;2.50;;;;;;;22.71;48.54;101123.36;104647;1306;73643;-85
2022/05/16 03:22:15;;;;;;;4.40;2.90;;;;;;;22.71;48.52;101129.10;104726;1306;75045;-85
2022/05/16 03:24:41;;;;;;;4.50;2.70;;;;;;;22.71;48.58;101135.90;104739;1306;61225;-84
2022/05/16 03:27:15;;;;;;;4.60;2.60;;;;;;;22.71;48.58;101136.09;104648;1306;61676;-85
2022/05/16 03:29:49;;;;;;;3.60;2.60;;;;;;;22.72;48.58;101137.30;104637;1306;73048;-83
2022/05/16 03:32:15;;;;;;;4.30;2.70;;;;;;;22.72;48.63;101141.26;104692;1306;75252;-84
2022/05/16 03:34:43;;;;;;;4.00;2.50;;;;;;;22.72;48.60;101143.95;104562;1307;61330;-83
2022/05/16 03:37:15;;;;;;;4.10;2.90;;;;;;;22.72;48.58;101145.89;104745;1306;61567;-84
2022/05/16 03:42:25;;;;;;;4.60;3.10;;;;;;;22.72;48.61;101152.55;104727;1306;74970;-84
2022/05/16 03:44:56;;;;;;;3.90;2.70;;;;;;;22.72;48.65;101152.56;104875;1306;61168;-86
2022/05/16 03:47:22;;;;;;;3.80;2.70;;;;;;;22.72;48.58;101153.98;104569;1306;61461;-82
2022/05/16 03:49:52;;;;;;;4.30;2.80;;;;;;;22.71;48.56;101157.05;104664;1306;72833;-84
2022/05/16 03:52:21;;;;;;;5.00;3.10;;;;;;;22.71;48.61;101157.77;104708;1306;61291;-85
2022/05/16 03:54:51;;;;;;;4.50;2.90;;;;;;;22.71;48.53;101160.98;104881;1306;61146;-88
2022/05/16 03:57:32;;;;;;;4.40;3.30;;;;;;;22.72;48.50;101162.08;104654;1306;61306;-81
2022/05/16 04:00:00;;;;;;;4.30;2.90;;;;;;;22.72;48.42;101162.93;104667;1306;74169;-84
2022/05/16 04:02:29;;;;;;;4.20;2.90;;;;;;;22.72;48.43;101162.05;104520;1306;76092;-84
2022/05/16 04:05:04;;;;;;;5.50;3.10;;;;;;;22.71;48.44;101165.14;104670;1306;61833;-83
2022/05/16 04:07:30;;;;;;;6.20;3.40;;;;;;;22.72;48.41;101169.58;104640;1306;61161;-83
2022/05/16 04:10:01;;;;;;;4.60;3.00;;;;;;;22.71;48.29;101173.75;104547;1306;73364;-86
2022/05/16 04:12:30;;;;;;;4.80;3.40;;;;;;;22.72;48.31;101172.48;104649;1306;75558;-84
2022/05/16 04:14:58;;;;;;;7.30;3.50;;;;;;;22.72;48.22;101177.11;104716;1306;61291;-83
2022/05/16 04:17:24;;;;;;;5.10;3.40;;;;;;;22.71;48.09;101178.27;104727;1306;61500;-86
2022/05/16 04:19:50;;;;;;;5.70;3.80;;;;;;;22.71;48.07;101180.59;104742;1306;61124;-83
2022/05/16 04:22:21;;;;;;;6.30;3.40;;;;;;;22.70;48.03;101181.02;104705;1306;61425;-83
2022/05/16 04:24:47;;;;;;;6.90;3.50;;;;;;;22.70;47.91;101186.08;104761;1306;61329;-85
2022/05/16 04:27:22;;;;;;;5.60;3.40;;;;;;;22.68;47.87;101189.96;104639;1306;61340;-82
2022/05/16 04:29:48;;;;;;;6.20;3.40;;;;;;;22.67;47.57;101194.89;104427;1306;73204;-85
2022/05/16 04:32:14;;;;;;;7.00;3.80;;;;;;;22.65;47.52;101194.67;104595;1307;61336;-83
2022/05/16 04:34:39;;;;;;;12.30;3.80;;;;;;;22.64;47.31;101198.67;104529;1306;61164;-84
2022/05/16 04:37:05;;;;;;;7.30;3.60;;;;;;;22.63;46.95;101201.44;104503;1307;61291;-83
2022/05/16 04:39:35;;;;;;;6.90;3.60;;;;;;;22.62;46.88;101200.97;104480;1306;72789;-83
2022/05/16 04:44:45;;;;;;;9.30;4.10;;;;;;;22.57;46.14;101198.23;104530;1306;61292;-83
2022/05/16 04:47:12;;;;;;;8.80;4.20;;;;;;;22.53;45.65;101199.65;104458;1306;61268;-84
2022/05/16 04:49:44;;;;;;;9.70;3.90;;;;;;;22.48;45.13;101193.55;104395;1306;72632;-80
2022/05/16 04:52:11;;;;;;;15.40;4.20;;;;;;;22.46;44.95;101196.34;104368;1307;60568;-82
2022/05/16 04:54:38;;;;;;;9.70;4.20;;;;;;;22.42;44.33;101198.07;104339;1306;59781;-83
2022/05/16 04:57:04;;;;;;;9.40;4.00;;;;;;;22.36;43.97;101198.86;104425;1306;61306;-83
2022/05/16 04:59:40;;;;;;;8.00;4.00;;;;;;;22.31;43.64;101203.45;104664;1306;61163;-83
2022/05/16 05:02:09;;;;;;;10.40;4.20;;;;;;;22.29;43.37;101202.92;104280;1306;74861;-84
2022/05/16 05:04:34;;;;;;;10.20;4.40;;;;;;;22.28;43.38;101206.54;104488;1306;61272;-83
2022/05/16 05:07:00;;;;;;;12.00;4.10;;;;;;;22.28;43.21;101210.69;104358;1305;59951;-81
2022/05/16 05:09:25;;;;;;;14.20;4.50;;;;;;;22.30;43.31;101214.48;104495;1306;60295;-83
2022/05/16 05:14:35;;;;;;;12.80;3.90;;;;;;;22.35;43.22;101220.99;104524;1306;75141;-82
2022/05/16 05:17:03;;;;;;;10.10;3.90;;;;;;;22.38;43.36;101222.59;104394;1305;61438;-81
2022/05/16 05:19:30;;;;;;;18.30;4.20;;;;;;;22.40;43.28;101226.89;104414;1306;62656;-82
2022/05/16 05:21:56;;;;;;;9.80;4.30;;;;;;;22.41;43.12;101227.70;104425;1306;61234;-83
2022/05/16 05:24:21;;;;;;;15.40;4.80;;;;;;;22.41;42.93;101228.05;104467;1306;61333;-82
2022/05/16 05:26:47;;;;;;;11.40;4.00;;;;;;;22.41;42.83;101229.70;104496;1306;61312;-81
2022/05/16 05:29:13;;;;;;;9.30;4.00;;;;;;;22.40;42.62;101227.64;104339;1309;59742;-80
2022/05/16 05:31:41;;;;;;;11.90;3.90;;;;;;;22.38;42.42;101231.15;104512;1306;61426;-81
2022/05/16 05:34:08;;;;;;;12.10;4.00;;;;;;;22.37;42.16;101232.66;104758;1306;61248;-81
2022/05/16 05:36:34;;;;;;;14.80;4.30;;;;;;;22.37;42.01;101238.60;104601;1306;61386;-82
2022/05/16 05:39:01;;;;;;;10.10;4.20;;;;;;;22.36;42.02;101239.20;104408;1306;61291;-81
2022/05/16 05:41:26;;;;;;;14.20;4.20;;;;;;;22.38;42.14;101243.33;104722;1305;61359;-83
2022/05/16 05:43:52;;;;;;;11.70;4.00;;;;;;;22.41;42.19;101245.34;104429;1306;59973;-83
2022/05/16 05:46:18;;;;;;;13.60;4.50;;;;;;;22.43;42.16;101248.58;104481;1306;61468;-82
2022/05/16 05:48:44;;;;;;;9.50;3.90;;;;;;;22.45;42.29;101245.59;104334;1306;61269;-83
2022/05/16 05:51:10;;;;;;;13.10;3.90;;;;;;;22.47;42.27;101250.27;104378;1306;59887;-84
2022/05/16 05:53:40;;;;;;;15.10;4.20;;;;;;;22.45;42.11;101251.28;104294;1306;59675;-83
2022/05/16 05:56:05;;;;;;;12.10;3.70;;;;;;;22.41;41.83;101252.81;105256;1306;76075;-84
2022/05/16 05:58:32;;;;;;;12.60;3.80;;;;;;;22.38;41.96;101251.05;105114;1306;60156;-83
2022/05/16 06:01:02;;;;;;;14.40;4.00;;;;;;;22.41;41.95;101256.25;104472;1306;61194;-82
2022/05/16 06:03:28;;;;;;;10.60;3.80;;;;;;;22.42;42.20;101259.95;104561;1306;73884;-83
2022/05/16 06:05:54;;;;;;;10.00;3.60;;;;;;;22.40;41.97;101257.75;104346;1306;61336;-82
2022/05/16 06:08:20;;;;;;;10.00;3.80;;;;;;;22.33;41.52;101257.83;103725;1306;61221;-83
2022/05/16 06:10:45;;;;;;;10.30;3.50;;;;;;;22.27;41.32;101257.38;104443;1306;60414;-85
2022/05/16 06:13:11;;;;;;;13.20;3.80;;;;;;;22.20;41.18;101251.41;104528;1306;59994;-82
2022/05/16 06:15:37;;;;;;;13.50;3.70;;;;;;;22.14;41.07;101254.67;104501;1305;61426;-83
2022/05/16 06:18:02;;;;;;;11.90;3.70;;;;;;;22.11;41.24;101260.25;104547;1306;61349;-83
2022/05/16 06:20:28;;;;;;;10.20;3.70;;;;;;;22.11;41.14;101266.88;104597;1306;61514;-81
2022/05/16 06:22:54;;;;;;;10.90;4.00;;;;;;;22.13;41.04;101270.89;104487;1305;59828;-82
2022/05/16 06:25:32;;;;;;;9.20;3.60;;;;;;;22.12;41.00;101274.69;104479;1305;61146;-82
2022/05/16 06:28:10;;;;;;;11.40;3.50;;;;;;;22.12;41.09;101276.52;104546;1305;74908;-82
2022/05/16 06:30:36;;;;;;;10.40;3.80;;;;;;;22.17;41.30;101276.55;104500;1306;61444;-82
2022/05/16 06:33:03;;;;;;;12.00;4.40;;;;;;;22.20;41.33;101281.17;104583;1306;60926;-82
2022/05/16 06:35:28;;;;;;;8.60;3.70;;;;;;;22.18;41.33;101281.27;104415;1306;61405;-84
2022/05/16 06:37:54;;;;;;;8.00;3.20;;;;;;;22.20;41.27;101285.98;104445;1306;60748;-83
2022/05/16 06:40:20;;;;;;;12.10;3.80;;;;;;;22.25;41.53;101286.58;104496;1306;61270;-82
2022/05/16 06:42:46;;;;;;;11.50;3.50;;;;;;;22.28;41.37;101287.76;104460;1306;59497;-82
2022/05/16 06:45:11;;;;;;;6.80;3.30;;;;;;;22.33;41.56;101283.70;104383;1306;61349;-82
2022/05/16 06:47:37;;;;;;;9.90;4.10;;;;;;;22.36;41.69;101283.49;104470;1306;60194;-82
2022/05/16 06:50:03;;;;;;;12.60;3.80;;;;;;;22.39;41.67;101281.14;104418;1306;74642;-82
2022/05/16 06:52:29;;;;;;;8.80;3.80;;;;;;;22.38;41.52;101281.03;104448;1306;61172;-84
2022/05/16 06:55:24;;;;;;;12.50;3.90;;;;;;;22.29;41.32;101283.78;104415;1306;59417;-86
2022/05/16 06:57:51;;;;;;;10.40;4.10;;;;;;;22.17;41.19;101281.55;104469;1306;72513;-82
2022/05/16 07:00:18;;;;;;;14.00;4.50;;;;;;;22.11;41.22;101281.27;104430;1305;61310;-82
2022/05/16 07:02:45;;;;;;;13.20;4.40;;;;;;;22.05;40.96;101283.09;105086;1306;60442;-82
2022/05/16 07:05:11;;;;;;;15.50;4.40;;;;;;;22.00;40.97;101275.17;104986;1307;60189;-82
2022/05/16 07:07:37;;;;;;;12.90;4.20;;;;;;;21.99;41.04;101273.09;104971;1306;60106;-82
2022/05/16 07:10:03;;;;;;;10.00;4.30;;;;;;;21.99;40.96;101271.45;104833;1305;60969;-80
2022/05/16 07:12:29;;;;;;;18.20;3.80;;;;;;;22.05;41.32;101275.88;104446;1306;59582;-81
2022/05/16 07:14:54;;;;;;;13.90;3.80;;;;;;;22.14;41.78;101269.92;104432;1306;61295;-82
2022/05/16 07:17:20;;;;;;;14.90;4.10;;;;;;;22.22;41.93;101268.98;104466;1306;61387;-82
2022/05/16 07:19:49;;;;;;;14.50;3.90;;;;;;;22.29;41.97;101265.83;104469;1306;61183;-82
2022/05/16 07:22:16;;;;;;;9.50;3.50;;;;;;;22.34;42.02;101266.79;105260;1305;75924;-83
2022/05/16 07:24:43;;;;;;;10.80;3.70;;;;;;;22.39;42.15;101270.20;105120;1306;59686;-83
2022/05/16 07:29:52;;;;;;;11.30;4.00;;;;;;;22.50;42.25;101270.51;105027;1306;73904;-83
2022/05/16 07:32:18;;;;;;;10.70;3.40;;;;;;;22.55;42.24;101269.48;105388;1306;59154;-82
2022/05/16 07:34:44;;;;;;;8.60;3.60;;;;;;;22.59;42.22;101274.34;104939;1306;59555;-82
2022/05/16 07:37:10;;;;;;;9.10;3.50;;;;;;;22.63;42.05;101273.91;104447;1306;60168;-83
2022/05/16 07:39:36;;;;;;;11.90;3.40;;;;;;;22.66;41.99;101273.90;104478;1306;61317;-81
2022/05/16 07:42:08;;;;;;;7.00;3.50;;;;;;;22.69;41.99;101277.98;104410;1306;61446;-82
2022/05/16 07:44:34;;;;;;;8.30;3.30;;;;;;;22.71;41.95;101282.33;105168;1305;60189;-83
2022/05/16 07:47:00;;;;;;;11.90;3.60;;;;;;;22.73;41.93;101280.02;104521;1306;61111;-81
2022/05/16 07:49:26;;;;;;;8.30;3.90;;;;;;;22.75;41.89;101280.62;104633;1306;60352;-81
2022/05/16 07:51:51;;;;;;;19.60;3.80;;;;;;;22.74;41.63;101281.77;104477;1304;61151;-84
2022/05/16 07:54:17;;;;;;;14.00;3.60;;;;;;;22.70;41.43;101279.32;104544;1306;59477;-83
2022/05/16 07:56:42;;;;;;;12.80;3.50;;;;;;;22.65;41.22;101278.63;104451;1305;59370;-83
2022/05/16 07:59:09;;;;;;;10.70;3.80;;;;;;;22.59;40.83;101279.59;104375;1306;60002;-82
2022/05/16 08:01:36;;;;;;;13.10;3.50;;;;;;;22.49;40.70;101285.27;104692;1306;71435;-82
2022/05/16 08:04:04;;;;;;;10.10;3.60;;;;;;;22.42;40.55;101287.20;104479;1308;74884;-81
2022/05/16 08:06:31;;;;;;;15.60;3.90;;;;;;;22.38;40.46;101289.95;104407;1306;61167;-81
2022/05/16 08:11:41;;;;;;;12.80;3.60;;;;;;;22.42;40.84;101291.32;104427;1309;73474;-81
2022/05/16 08:14:06;;;;;;;17.30;3.80;;;;;;;22.45;40.85;101295.97;104471;1306;61297;-81
2022/05/16 08:16:32;;;;;;;16.60;3.60;;;;;;;22.48;41.02;101292.19;104539;1306;61499;-82
2022/05/16 08:18:58;;;;;;;13.60;4.00;;;;;;;22.51;41.13;101293.02;104448;1306;61361;-82
2022/05/16 08:21:24;;;;;;;12.10;3.50;;;;;;;22.52;41.03;101295.48;104449;1305;59827;-82
2022/05/16 08:23:50;;;;;;;13.90;3.50;;;;;;;22.49;41.20;101293.37;104432;1306;61370;-83
2022/05/16 08:26:15;;;;;;;9.50;3.80;;;;;;;22.47;40.96;101291.34;104578;1306;63056;-80
2022/05/16 08:28:42;;;;;;;9.90;3.80;;;;;;;22.38;40.80;101287.81;104535;1306;61750;-82
2022/05/16 08:31:08;;;;;;;13.40;4.10;;;;;;;22.35;40.77;101285.36;105178;1308;59302;-82
2022/05/16 08:33:34;;;;;;;10.40;3.80;;;;;;;22.36;40.85;101283.10;105315;1306;60052;-81
2022/05/16 08:41:30;;;;;;;9.80;3.50;;;;;;;22.32;40.63;101288.38;104445;1306;61170;-82
2022/05/16 08:44:19;;;;;;;10.10;3.80;;;;;;;22.32;40.64;101286.61;105229;1306;72868;-82
2022/05/16 08:46:48;;;;;;;12.90;3.90;;;;;;;22.36;40.74;101288.54;105172;1308;75125;-83
2022/05/16 08:49:24;;;;;;;14.30;3.80;;;;;;;22.35;40.44;101284.27;104946;1306;60352;-81
2022/05/16 08:51:53;;;;;;;11.90;4.10;;;;;;;22.33;40.44;101279.74;104476;1306;61134;-81
2022/05/16 08:54:45;;;;;;;17.10;3.90;;;;;;;22.31;40.41;101279.33;104978;1306;71712;-82
2022/05/16 08:57:13;;;;;;;13.80;4.40;;;;;;;22.30;40.43;101283.17;105239;1305;75805;-83
2022/05/16 08:59:42;;;;;;;7.70;3.40;;;;;;;22.28;40.29;101277.95;105212;1306;59734;-83
2022/05/16 09:02:19;;;;;;;15.20;3.60;;;;;;;22.25;40.17;101283.31;105101;1306;59744;-83
2022/05/16 09:05:02;;;;;;;13.50;3.90;;;;;;;22.22;40.17;101275.96;104999;1306;72098;-84
2022/05/16 09:07:54;;;;;;;17.50;3.90;;;;;;;22.24;40.20;101274.61;104840;1305;75940;-82
2022/05/16 09:11:00;;;;;;;13.30;4.10;;;;;;;22.28;40.46;101278.98;104470;1305;61119;-82
2022/05/16 09:13:26;;;;;;;14.50;4.20;;;;;;;22.26;40.34;101280.20;103872;1314;61367;-83
2022/05/16 09:16:19;;;;;;;20.60;4.20;;;;;;;22.26;40.23;101274.63;103806;1314;61689;-82
2022/05/16 09:18:52;;;;;;;16.80;4.20;;;;;;;22.28;40.45;101272.17;104476;1314;75596;-81
2022/05/16 09:21:26;;;;;;;17.00;4.30;;;;;;;22.31;40.59;101273.56;103836;1314;61729;-83
2022/05/16 09:24:04;;;;;;;13.60;4.10;;;;;;;22.35;40.36;101273.89;103808;1312;61409;-80
2022/05/16 09:26:51;;;;;;;14.20;3.90;;;;;;;22.38;40.72;101276.16;103905;1314;74285;-83
2022/05/16 09:29:28;;;;;;;13.70;3.80;;;;;;;22.40;40.70;101279.44;103764;1314;74898;-83
2022/05/16 09:31:56;;;;;;;15.30;3.70;;;;;;;22.44;41.07;101275.78;104486;1314;60919;-83
2022/05/16 09:34:22;;;;;;;13.80;3.80;;;;;;;22.47;41.08;101273.60;103748;1314;61497;-83
2022/05/16 09:36:51;;;;;;;7.90;3.90;;;;;;;22.49;41.08;101272.00;103523;1314;61338;-82
2022/05/16 09:39:18;;;;;;;;;;;;;;;22.52;41.19;101271.27;104478;1315;74807;-82
2022/05/16 09:41:58;;;;;;;12.40;4.00;;;;;;;22.53;41.23;101273.03;103729;1315;61554;-85
2022/05/16 09:44:29;;;;;;;7.90;3.40;;;;;;;22.55;41.22;101270.48;103885;1312;61392;-84
2022/05/16 09:47:22;;;;;;;13.40;4.00;;;;;;;22.55;41.07;101266.57;103917;1314;73823;-83
2022/05/16 09:50:07;;;;;;;18.60;3.70;;;;;;;22.55;41.18;101263.19;104242;1306;74556;-83
2022/05/16 09:52:36;;;;;;;14.00;3.80;;;;;;;22.55;41.16;101254.91;105219;1306;60761;-83
2022/05/16 09:55:11;;;;;;;18.30;4.20;;;;;;;22.57;41.21;101255.31;104946;1308;60453;-82
2022/05/16 09:58:00;;;;;;;13.50;4.20;;;;;;;22.60;41.34;101249.71;104813;1305;73260;-81
2022/05/16 10:00:40;;;;;;;14.50;3.90;;;;;;;22.63;41.40;101249.18;104865;1306;74044;-82
2022/05/16 10:03:36;;;;;;;13.90;3.70;;;;;;;22.67;41.59;101245.47;105140;1306;60634;-83
2022/05/16 10:06:09;;;;;;;13.10;4.20;;;;;;;22.71;41.60;101247.70;104637;1306;62705;-84
2022/05/16 10:08:37;;;;;;;11.30;4.20;;;;;;;22.73;41.76;101246.47;104940;1305;74079;-83
2022/05/16 10:11:26;;;;;;;14.60;4.50;;;;;;;22.77;42.03;101245.48;105284;1306;75863;-83
2022/05/16 10:13:52;;;;;;;;;;;;;;;22.79;42.09;101242.27;105278;1306;60419;-83
2022/05/16 10:16:18;;;;;;;12.40;3.70;;;;;;;22.78;42.18;101239.83;105333;1305;59563;-83
2022/05/16 10:19:00;;;;;;;14.50;4.10;;;;;;;22.82;42.28;101236.14;105116;1306;59273;-83
2022/05/16 10:21:37;;;;;;;11.50;3.80;;;;;;;22.85;42.47;101229.67;105173;1306;77082;-82
2022/05/16 10:24:09;;;;;;;9.20;3.70;;;;;;;22.87;42.69;101223.77;104987;1306;60429;-82
2022/05/16 10:26:38;;;;;;;15.80;4.00;;;;;;;22.89;42.71;101222.71;105073;1309;61528;-83
2022/05/16 10:29:06;;;;;;;;;;;;;;;22.91;42.79;101219.53;105168;1306;72976;-83
2022/05/16 10:34:43;;;;;;;12.20;4.00;;;;;;;22.92;42.65;101213.01;104931;1306;60287;-82
2022/05/16 10:37:09;;;;;;;10.50;3.70;;;;;;;22.93;42.74;101212.20;104527;1306;61387;-83
2022/05/16 10:39:37;;;;;;;10.50;3.90;;;;;;;22.93;42.64;101207.14;104203;1309;72122;-83
2022/05/16 10:42:06;;;;;;;9.90;3.50;;;;;;;22.95;42.76;101204.16;104274;1309;74645;-84
2022/05/16 10:44:53;;;;;;;12.00;3.80;;;;;;;22.96;42.85;101203.91;104533;1308;61527;-83
2022/05/16 10:47:23;;;;;;;;;;;;;;;22.96;42.64;101195.84;104436;1309;59851;-82
2022/05/16 10:50:21;;;;;;;16.10;3.60;;;;;;;22.91;42.33;101191.31;105106;1306;73494;-84
2022/05/16 10:53:10;;;;;;;23.10;4.10;;;;;;;22.91;42.26;101189.36;104769;1306;75271;-89
2022/05/16 10:55:54;;;;;;;8.70;3.50;;;;;;;22.93;42.41;101189.92;104828;1306;60712;-83
2022/05/16 10:58:41;;;;;;;16.40;4.10;;;;;;;22.95;42.25;101189.26;105237;1304;60397;-83
2022/05/16 11:01:19;;;;;;;15.90;4.30;;;;;;;22.95;42.08;101181.21;105224;1305;72714;-83
2022/05/16 11:04:04;;;;;;;14.30;4.00;;;;;;;22.97;42.19;101185.17;105174;1304;74746;-83
2022/05/16 11:06:55;;;;;;;8.30;3.60;;;;;;;22.99;42.23;101179.06;105371;1306;61513;-82
2022/05/16 11:09:37;;;;;;;15.80;3.80;;;;;;;23.01;42.32;101178.23;105331;1306;60516;-82
2022/05/16 11:12:29;;;;;;;10.70;3.10;;;;;;;23.03;42.03;101173.98;105086;1306;73720;-84
2022/05/16 11:15:34;;;;;;;11.50;3.40;;;;;;;23.03;42.00;101171.13;104513;1306;76043;-82
2022/05/16 11:18:27;;;;;;;14.20;3.30;;;;;;;23.03;42.08;101169.30;104301;1309;61313;-84
2022/05/16 11:21:01;;;;;;;11.00;3.70;;;;;;;23.03;41.86;101163.36;105202;1308;61694;-83
2022/05/16 11:23:45;;;;;;;10.30;3.50;;;;;;;23.05;41.93;101160.71;104644;1306;930606;-83
2022/05/16 11:26:34;;;;;;;19.20;4.00;;;;;;;23.06;42.09;101154.73;105266;1306;76274;-83
2022/05/16 11:29:20;;;;;;;10.60;3.40;;;;;;;23.07;42.10;101152.98;105375;1306;60670;-83
2022/05/16 11:32:00;;;;;;;11.70;3.50;;;;;;;23.08;42.04;101148.10;105498;1306;60368;-82
2022/05/16 11:34:49;;;;;;;13.00;3.70;;;;;;;23.09;41.87;101143.55;105199;1309;73591;-85
2022/05/16 11:37:26;;;;;;;9.40;3.70;;;;;;;23.09;41.42;101141.19;105180;1306;74751;-82
2022/05/16 11:40:05;;;;;;;15.90;3.40;;;;;;;23.08;41.05;101137.85;104228;1306;61138;-81
2022/05/16 11:42:59;;;;;;;13.80;3.70;;;;;;;23.08;40.84;101128.70;105106;1305;61510;-83
2022/05/16 11:46:17;;;;;;;16.30;3.80;;;;;;;23.08;40.76;101123.30;103977;1313;73026;-83
2022/05/16 11:48:52;;;;;;;17.50;3.80;;;;;;;23.10;40.82;101113.81;104003;1313;75728;-83
2022/05/16 11:51:17;;;;;;;20.40;4.20;;;;;;;23.12;40.82;101107.98;104081;1315;61259;-82
2022/05/16 11:53:52;;;;;;;16.60;3.70;;;;;;;23.13;41.18;101111.66;104155;1313;61272;-83
2022/05/16 12:02:39;;;;;;;12.50;3.40;;;;;;;23.14;40.89;101099.73;104728;1314;60418;-83
2022/05/16 12:05:09;;;;;;;12.50;3.60;;;;;;;23.15;41.08;101093.20;104163;1319;60391;-83
2022/05/16 12:07:35;;;;;;;12.00;3.20;;;;;;;23.16;41.20;101090.08;103213;1320;72905;-84
2022/05/16 12:10:22;;;;;;;8.50;3.90;;;;;;;23.17;41.31;101079.41;103222;1320;61238;-84
2022/05/16 12:13:27;;;;;;;6.70;3.20;;;;;;;23.17;41.07;101077.96;103247;1320;61770;-85